createdAt,value
2018-06-16T00:00:47.866Z,8.30
2018-06-16T00:05:51.712Z,9.73
2018-06-16T00:10:55.008Z,9.10
2018-06-16T00:15:58.267Z,8.80
2018-06-16T00:21:01.603Z,8.67
2018-06-16T00:26:04.972Z,9.13
2018-06-16T00:31:08.325Z,9.43
2018-06-16T00:36:11.563Z,11.60
2018-06-16T00:41:14.827Z,10.97
2018-06-16T00:46:18.051Z,11.20
2018-06-16T00:51:21.330Z,10.17
2018-06-16T00:56:24.618Z,10.53
2018-06-16T01:01:27.626Z,9.73
2018-06-16T01:06:30.892Z,10.50
2018-06-16T01:11:34.151Z,10.17
2018-06-16T01:16:37.409Z,11.33
2018-06-16T01:21:40.719Z,11.53
2018-06-16T01:26:43.985Z,11.97
2018-06-16T01:31:47.246Z,10.93
2018-06-16T01:36:50.512Z,13.23
2018-06-16T01:41:53.781Z,11.23
2018-06-16T01:46:57.082Z,12.47
2018-06-16T01:52:00.360Z,12.37
2018-06-16T01:57:03.626Z,32.43
2018-06-16T02:02:06.902Z,27.43
2018-06-16T02:07:10.159Z,15.30
2018-06-16T02:12:13.178Z,12.93
2018-06-16T02:17:16.908Z,13.57
2018-06-16T02:22:20.175Z,15.50
2018-06-16T02:27:23.435Z,12.97
2018-06-16T02:32:27.215Z,13.80
2018-06-16T02:37:30.477Z,13.97
2018-06-16T02:42:33.748Z,15.37
2018-06-16T02:47:37.054Z,15.10
2018-06-16T02:52:40.350Z,13.87
2018-06-16T02:57:43.663Z,14.83
2018-06-16T03:02:46.937Z,13.57
2018-06-16T03:07:50.211Z,16.13
2018-06-16T03:12:53.486Z,14.77
2018-06-16T03:17:56.774Z,14.97
2018-06-16T03:23:00.154Z,14.60
2018-06-16T03:28:03.403Z,14.00
2018-06-16T03:33:06.708Z,15.83
2018-06-16T03:38:09.990Z,15.47
2018-06-16T03:43:13.275Z,15.40
2018-06-16T03:48:16.532Z,17.50
2018-06-16T03:53:19.811Z,15.00
2018-06-16T03:58:23.128Z,15.33
2018-06-16T04:03:26.402Z,15.20
2018-06-16T04:08:29.678Z,15.30
2018-06-16T04:13:33.042Z,14.83
2018-06-16T04:18:36.470Z,14.83
2018-06-16T04:23:39.780Z,15.33
2018-06-16T04:28:43.058Z,14.40
2018-06-16T04:33:46.425Z,13.70
2018-06-16T04:38:49.692Z,14.80
2018-06-16T04:43:52.973Z,14.80
2018-06-16T04:48:56.268Z,14.20
2018-06-16T04:53:59.579Z,14.03
2018-06-16T04:59:02.832Z,13.87
2018-06-16T05:04:06.093Z,14.10
2018-06-16T05:09:11.040Z,12.23
2018-06-16T05:14:14.280Z,10.83
2018-06-16T05:19:17.551Z,10.80
2018-06-16T05:24:20.824Z,10.20
2018-06-16T05:29:24.101Z,11.03
2018-06-16T05:34:27.378Z,9.47
2018-06-16T05:39:30.749Z,9.57
2018-06-16T05:44:33.795Z,9.57
2018-06-16T05:49:37.047Z,9.93
2018-06-16T05:54:40.672Z,11.00
2018-06-16T05:59:43.941Z,9.37
2018-06-16T06:04:47.205Z,9.77
2018-06-16T06:09:50.529Z,9.00
2018-06-16T06:14:53.820Z,9.77
2018-06-16T06:19:57.115Z,8.93
2018-06-16T06:25:00.694Z,9.53
2018-06-16T06:30:03.974Z,9.53
2018-06-16T06:35:07.235Z,8.47
2018-06-16T06:40:10.584Z,10.17
2018-06-16T06:45:14.130Z,8.00
2018-06-16T06:50:17.123Z,8.73
2018-06-16T06:55:20.457Z,9.23
2018-06-16T07:00:23.704Z,9.40
2018-06-16T07:05:26.973Z,8.97
2018-06-16T07:10:29.995Z,10.60
2018-06-16T07:15:33.573Z,10.27
2018-06-16T07:20:36.845Z,10.47
2018-06-16T07:25:40.125Z,9.83
2018-06-16T07:30:43.450Z,10.57
2018-06-16T07:35:46.713Z,10.58
2018-06-16T07:40:51.255Z,9.00
2018-06-16T07:45:54.578Z,10.03
2018-06-16T07:50:57.960Z,9.03
2018-06-16T07:56:01.234Z,8.08
2018-06-16T08:01:04.508Z,7.60
2018-06-16T08:06:07.535Z,8.58
2018-06-16T08:11:10.825Z,7.45
2018-06-16T08:16:14.352Z,7.67
2018-06-16T08:21:17.817Z,8.35
2018-06-16T08:26:21.208Z,6.50
2018-06-16T08:31:25.123Z,7.37
2018-06-16T08:36:28.439Z,6.80
2018-06-16T08:41:31.733Z,6.85
2018-06-16T08:46:35.061Z,5.78
2018-06-16T08:51:38.901Z,5.80
2018-06-16T08:56:42.446Z,7.85
2018-06-16T09:01:45.784Z,7.08
2018-06-16T09:06:48.877Z,5.87
2018-06-16T09:11:52.187Z,4.50
2018-06-16T09:16:57.125Z,5.35
2018-06-16T09:22:00.497Z,5.58
2018-06-16T09:27:03.769Z,5.17
2018-06-16T09:32:07.041Z,4.70
2018-06-16T09:37:10.353Z,4.85
2018-06-16T09:42:13.604Z,3.98
2018-06-16T09:47:16.925Z,6.58
2018-06-16T09:52:19.934Z,4.67
2018-06-16T09:57:22.964Z,3.75
2018-06-16T10:02:26.327Z,3.62
2018-06-16T10:07:29.797Z,3.30
2018-06-16T10:12:33.180Z,3.67
2018-06-16T10:17:39.493Z,3.40
2018-06-16T10:22:46.461Z,3.25
2018-06-16T10:27:49.964Z,4.67
2018-06-16T10:32:53.313Z,3.67
2018-06-16T10:37:56.716Z,3.55
2018-06-16T10:43:00.192Z,3.35
2018-06-16T10:48:04.638Z,2.70
2018-06-16T10:53:07.969Z,4.75
2018-06-16T10:58:12.085Z,3.47
2018-06-16T11:03:15.096Z,3.75
2018-06-16T11:08:18.820Z,3.72
2018-06-16T11:13:22.141Z,5.55
2018-06-16T11:18:25.400Z,3.75
2018-06-16T11:23:28.696Z,3.20
2018-06-16T11:28:32.014Z,3.42
2018-06-16T11:33:35.613Z,3.30
2018-06-16T11:44:18.360Z,3.00
2018-06-16T11:49:24.606Z,3.08
2018-06-16T11:54:27.960Z,3.42
2018-06-16T11:59:31.328Z,3.52
2018-06-16T12:04:34.581Z,4.08
2018-06-16T12:09:38.024Z,3.02
2018-06-16T12:14:42.493Z,2.95
2018-06-16T12:19:48.694Z,3.25
2018-06-16T12:24:56.164Z,2.90
2018-06-16T12:30:06.303Z,2.67
2018-06-16T12:35:09.645Z,3.47
2018-06-16T12:40:13.242Z,3.35
2018-06-16T12:45:16.528Z,3.30
2018-06-16T12:50:19.904Z,2.95
2018-06-16T12:55:23.197Z,3.15
2018-06-16T13:00:26.444Z,3.08
2018-06-16T13:05:29.799Z,3.00
2018-06-16T13:10:33.129Z,3.60
2018-06-16T13:15:36.397Z,3.10
2018-06-16T13:20:39.668Z,4.42
2018-06-16T13:25:42.962Z,2.90
2018-06-16T13:30:46.334Z,3.20
2018-06-16T13:35:49.757Z,3.42
2018-06-16T13:40:53.608Z,2.90
2018-06-16T13:45:57.122Z,3.15
2018-06-16T13:51:00.510Z,3.20
2018-06-16T13:56:03.894Z,3.20
2018-06-16T14:01:07.537Z,7.28
2018-06-16T14:06:11.010Z,4.40
2018-06-16T14:11:14.282Z,2.60
2018-06-16T14:16:19.476Z,2.80
2018-06-16T14:21:24.012Z,4.58
2018-06-16T14:26:27.272Z,3.17
2018-06-16T14:31:30.529Z,3.12
2018-06-16T14:36:33.809Z,4.22
2018-06-16T14:41:37.144Z,3.70
2018-06-16T14:46:40.431Z,3.45
2018-06-16T14:51:43.741Z,3.35
2018-06-16T14:56:47.003Z,3.62
2018-06-16T15:01:50.249Z,3.58
2018-06-16T15:06:53.592Z,3.80
2018-06-16T15:11:57.157Z,3.20
2018-06-16T15:17:00.882Z,3.27
2018-06-16T15:22:04.175Z,3.40
2018-06-16T15:27:08.050Z,3.47
2018-06-16T15:32:11.410Z,4.42
2018-06-16T15:37:15.078Z,3.77
2018-06-16T15:42:18.688Z,3.60
2018-06-16T15:47:22.053Z,3.70
2018-06-16T15:52:25.333Z,3.70
2018-06-16T15:57:28.603Z,4.17
2018-06-16T16:02:31.865Z,5.50
2018-06-16T16:07:35.180Z,3.77
2018-06-16T16:12:38.643Z,4.03
2018-06-16T16:17:41.899Z,5.03
2018-06-16T16:22:45.202Z,4.43
2018-06-16T16:27:48.470Z,4.20
2018-06-16T16:32:51.472Z,4.17
2018-06-16T16:37:54.732Z,4.00
2018-06-16T16:42:57.992Z,4.17
2018-06-16T16:48:01.281Z,5.50
2018-06-16T16:53:04.694Z,5.07
2018-06-16T16:58:08.565Z,3.67
2018-06-16T17:03:11.861Z,3.90
2018-06-16T17:08:15.120Z,4.67
2018-06-16T17:13:18.596Z,4.07
2018-06-16T17:18:21.891Z,3.90
2018-06-16T17:23:25.158Z,4.40
2018-06-16T17:28:28.468Z,4.40
2018-06-16T17:33:31.753Z,3.53
2018-06-16T17:38:35.050Z,5.17
2018-06-16T17:43:38.320Z,11.67
2018-06-16T17:48:41.633Z,7.03
2018-06-16T17:53:44.896Z,4.00
2018-06-16T17:58:48.156Z,4.57
2018-06-16T18:03:51.440Z,4.20
2018-06-16T18:08:54.747Z,6.00
2018-06-16T18:13:58.151Z,4.10
2018-06-16T18:19:01.444Z,4.57
2018-06-16T18:24:04.906Z,4.70
2018-06-16T18:29:08.277Z,4.70
2018-06-16T18:34:11.778Z,4.60
2018-06-16T18:39:15.696Z,4.97
2018-06-16T18:44:18.964Z,7.60
2018-06-16T18:49:23.220Z,13.20
2018-06-16T18:54:26.512Z,8.87
2018-06-16T18:59:30.021Z,6.43
2018-06-16T19:04:33.309Z,5.80
2018-06-16T19:09:36.933Z,5.17
2018-06-16T19:14:40.222Z,6.37
2018-06-16T19:19:43.518Z,4.93
2018-06-16T19:24:47.178Z,4.90
2018-06-16T19:29:50.608Z,5.70
2018-06-16T19:34:53.889Z,6.40
2018-06-16T19:39:57.162Z,5.63
2018-06-16T19:45:00.603Z,5.83
2018-06-16T19:50:04.190Z,5.77
2018-06-16T19:55:07.827Z,6.10
2018-06-16T20:00:11.274Z,5.43
2018-06-16T20:05:14.612Z,8.90
2018-06-16T20:10:17.870Z,7.83
2018-06-16T20:15:20.858Z,5.70
2018-06-16T20:20:23.888Z,7.47
2018-06-16T20:25:27.121Z,5.70
2018-06-16T20:30:30.561Z,6.57
2018-06-16T20:35:34.017Z,5.97
2018-06-16T20:40:37.259Z,5.97
2018-06-16T20:45:40.515Z,5.60
2018-06-16T20:50:43.876Z,5.60
2018-06-16T20:55:47.165Z,5.70
2018-06-16T21:00:50.420Z,5.40
2018-06-16T21:05:53.697Z,6.23
2018-06-16T21:10:57.004Z,6.30
2018-06-16T21:16:00.269Z,6.37
2018-06-16T21:21:03.584Z,7.60
2018-06-16T21:26:06.901Z,6.10
2018-06-16T21:31:10.185Z,5.57
2018-06-16T21:36:13.460Z,6.07
2018-06-16T21:41:16.716Z,6.70
2018-06-16T21:46:20.059Z,8.80
2018-06-16T21:51:23.334Z,10.33
2018-06-16T21:56:26.619Z,10.23
2018-06-16T22:01:31.035Z,8.57
2018-06-16T22:06:34.627Z,8.37
2018-06-16T22:11:37.905Z,8.70
2018-06-16T22:16:41.205Z,7.73
2018-06-16T22:21:44.480Z,7.90
2018-06-16T22:26:47.799Z,7.30
2018-06-16T22:31:51.056Z,7.43
2018-06-16T22:36:54.345Z,7.90
2018-06-16T22:41:57.608Z,8.30
2018-06-16T22:47:00.690Z,9.03
2018-06-16T22:52:03.969Z,8.97
2018-06-16T22:57:07.387Z,8.43
2018-06-16T23:02:10.645Z,9.40
2018-06-16T23:07:13.957Z,11.23
2018-06-16T23:12:17.181Z,9.80
2018-06-16T23:17:20.544Z,9.67
2018-06-16T23:22:23.776Z,10.20
2018-06-16T23:27:27.068Z,11.60
2018-06-16T23:32:30.319Z,11.43
2018-06-16T23:37:33.728Z,10.87
2018-06-16T23:42:36.970Z,8.93
2018-06-16T23:47:40.258Z,11.87
2018-06-16T23:52:43.548Z,9.87
2018-06-16T23:57:46.567Z,10.10
